Time;durP1;ratioP1;P1;durP2;ratioP2;P2;SDS_P1;SDS_P2;PMS_P1;PMS_P2;Temp;Humidity;BMP_temperature;BMP_pressure;BME280_temperature;BME280_humidity;BME280_pressure;Samples;Min_cycle;Max_cycle;Signal;HPM_P1;HPM_P2
2024/01/30 00:00:37;;;;;;;4.90;2.90;;;;;;;2.53;68.05;98217.27;108358;1285;23927;-85
2024/01/30 00:04:08;;;;;;;5.20;3.60;;;;;;;2.41;68.83;98214.55;108263;1285;137525;-85
2024/01/30 00:07:18;;;;;;;8.30;4.60;;;;;;;2.30;67.65;98211.73;108284;1282;22540;-85
2024/01/30 00:10:36;;;;;;;25.50;9.10;;;;;;;2.38;67.60;98216.05;108175;1285;137908;-86
2024/01/30 00:13:34;;;;;;;6.80;4.20;;;;;;;2.48;66.94;98214.71;108264;1280;22540;-85
2024/01/30 00:16:51;;;;;;;4.30;2.60;;;;;;;2.52;70.17;98213.27;108203;1285;137296;-85
2024/01/30 00:19:50;;;;;;;4.30;3.00;;;;;;;2.39;70.92;98216.52;108285;1285;22552;-85
2024/01/30 00:22:47;;;;;;;2.90;2.30;;;;;;;2.25;71.04;98216.81;108196;1280;137598;-86
2024/01/30 00:25:41;;;;;;;;;;;;;;;;;;;;;
2024/01/30 00:28:52;;;;;;;2.90;2.20;;;;;;;2.20;70.50;98215.23;108110;1280;137640;-85
2024/01/30 00:32:00;;;;;;;;;;;;;;;;;;;;;
2024/01/30 00:34:59;;;;;;;2.30;1.70;;;;;;;2.20;70.62;98210.96;108242;1285;137389;-86
2024/01/30 00:38:11;;;;;;;3.40;2.10;;;;;;;2.16;70.37;98209.98;108264;1285;22579;-85
2024/01/30 00:41:22;;;;;;;4.60;3.00;;;;;;;2.22;68.73;98209.63;108277;1285;137765;-84
2024/01/30 00:44:17;;;;;;;;;;;;;;;;;;;;;
2024/01/30 00:47:17;;;;;;;6.90;4.10;;;;;;;2.86;61.61;98205.65;108172;1283;137949;-84
2024/01/30 00:49:58;;;;;;;4.10;3.00;;;;;;;3.13;62.70;98202.31;108276;1282;22613;-84
2024/01/30 00:53:06;;;;;;;7.40;5.50;;;;;;;3.24;61.02;98193.11;108175;1285;137386;-83
2024/01/30 00:56:34;;;;;;;4.00;3.00;;;;;;;3.42;58.87;98198.16;108424;1285;22553;-84
2024/01/30 01:00:02;;;;;;;11.80;7.50;;;;;;;3.69;58.35;98190.85;108143;1281;137758;-84
2024/01/30 01:03:21;;;;;;;7.60;5.40;;;;;;;3.85;57.11;98191.76;108172;1287;26487;-84
2024/01/30 01:06:47;;;;;;;6.20;4.30;;;;;;;3.98;57.04;98198.67;108601;1279;22494;-85
2024/01/30 01:10:15;;;;;;;7.40;5.20;;;;;;;4.01;57.93;98196.95;108281;1286;23778;-85
2024/01/30 01:13:42;;;;;;;7.30;3.80;;;;;;;4.07;56.20;98190.17;108140;1286;22537;-83
2024/01/30 01:16:55;;;;;;;4.00;2.40;;;;;;;4.12;57.87;98189.37;108212;1280;137506;-85
2024/01/30 01:20:22;;;;;;;5.20;3.70;;;;;;;4.09;56.85;98185.95;108313;1286;22537;-84
2024/01/30 01:23:59;;;;;;;;;;;;;;;;;;;;;
2024/01/30 01:27:22;;;;;;;3.10;2.30;;;;;;;4.18;56.12;98186.05;108377;1286;22623;-83
2024/01/30 01:30:43;;;;;;;;;;;;;;;;;;;;;
2024/01/30 01:34:13;;;;;;;3.30;2.10;;;;;;;4.18;56.84;98177.16;108131;1286;137766;-85
2024/01/30 01:37:33;;;;;;;4.30;2.50;;;;;;;4.14;56.69;98171.58;108357;1286;24218;-85
2024/01/30 01:41:01;;;;;;;3.50;2.20;;;;;;;4.20;55.47;98167.92;108098;1280;137399;-85
2024/01/30 01:44:20;;;;;;;3.30;2.20;;;;;;;4.23;54.66;98158.67;104269;1280;5402223;-85
2024/01/30 01:47:48;;;;;;;3.20;2.90;;;;;;;4.18;53.93;98154.67;108160;1280;137637;-85
2024/01/30 01:51:18;;;;;;;2.50;1.90;;;;;;;4.28;51.50;98151.98;108330;1280;26611;-85
2024/01/30 01:54:45;;;;;;;3.30;1.80;;;;;;;4.40;51.52;98150.15;108327;1280;24024;-85
2024/01/30 01:58:23;;;;;;;2.90;2.00;;;;;;;4.51;50.73;98152.67;107962;1286;136536;-84
2024/01/30 02:01:53;;;;;;;2.70;1.70;;;;;;;4.58;49.60;98148.98;108410;1285;24244;-84
2024/01/30 02:05:20;;;;;;;2.30;1.70;;;;;;;4.67;49.88;98147.34;108329;1282;22539;-84
2024/01/30 02:08:52;;;;;;;3.00;1.70;;;;;;;4.66;51.21;98140.73;108284;1285;24347;-85
2024/01/30 02:12:19;;;;;;;2.60;2.10;;;;;;;4.71;49.26;98141.06;108003;1285;138079;-85
2024/01/30 02:15:46;;;;;;;3.50;1.80;;;;;;;4.80;50.39;98130.30;108223;1285;22751;-84
2024/01/30 02:19:14;;;;;;;2.50;1.70;;;;;;;4.89;48.01;98127.48;108288;1285;22667;-84
2024/01/30 02:22:35;;;;;;;6.50;3.30;;;;;;;4.97;48.66;98126.77;108198;1269;137405;-85
2024/01/30 02:26:14;;;;;;;7.60;3.70;;;;;;;5.05;48.23;98127.30;108776;1285;23481;-85
2024/01/30 02:29:35;;;;;;;6.30;3.70;;;;;;;5.10;48.86;98125.69;108338;1285;137514;-84
2024/01/30 02:33:08;;;;;;;2.90;1.50;;;;;;;5.13;47.18;98124.27;108304;1278;23958;-84
2024/01/30 02:36:37;;;;;;;2.20;1.80;;;;;;;5.25;46.59;98120.95;108040;1279;137630;-84
2024/01/30 02:40:07;;;;;;;2.10;1.90;;;;;;;5.26;47.86;98116.43;108385;1285;22539;-85
2024/01/30 02:43:44;;;;;;;;;;;;;;;;;;;;;
2024/01/30 02:47:18;;;;;;;;;;;;;;;;;;;;;
2024/01/30 02:50:41;;;;;;;4.10;2.60;;;;;;;5.24;46.22;98122.52;108253;1285;25484;-85
2024/01/30 02:54:08;;;;;;;3.00;1.90;;;;;;;5.27;47.04;98123.38;108120;1285;137815;-84
2024/01/30 02:57:36;;;;;;;2.00;1.80;;;;;;;5.23;46.58;98130.21;108271;1285;24007;-84
2024/01/30 03:01:04;;;;;;;2.40;1.50;;;;;;;5.32;46.57;98130.17;108287;1285;22604;-84
2024/01/30 03:04:31;;;;;;;2.20;1.80;;;;;;;5.37;45.76;98131.25;108280;1285;22615;-84
2024/01/30 03:07:59;;;;;;;29.60;17.20;;;;;;;5.33;50.93;98130.98;108423;1285;23320;-84
2024/01/30 03:11:35;;;;;;;26.90;15.80;;;;;;;4.87;55.06;98124.16;108163;1285;138528;-84
2024/01/30 03:15:04;;;;;;;25.10;13.80;;;;;;;4.37;56.13;98131.16;108278;1285;22543;-84
2024/01/30 03:18:31;;;;;;;32.50;19.00;;;;;;;4.06;58.58;98129.57;108310;1285;137666;-84
2024/01/30 03:22:00;;;;;;;30.30;17.80;;;;;;;3.67;60.17;98130.87;108308;1284;22583;-84
2024/01/30 03:25:17;;;;;;;34.10;19.10;;;;;;;3.34;62.30;98131.02;108460;1282;22481;-85
2024/01/30 03:28:49;;;;;;;36.00;20.30;;;;;;;3.00;63.40;98135.83;108334;1285;26679;-85
2024/01/30 03:32:17;;;;;;;30.70;17.60;;;;;;;2.77;64.87;98133.78;108193;1285;22590;-84
2024/01/30 03:35:45;;;;;;;29.10;17.00;;;;;;;2.56;65.65;98129.02;108153;1285;137638;-84
2024/01/30 03:39:12;;;;;;;28.70;17.20;;;;;;;2.46;65.48;98131.33;108290;1285;22566;-85
2024/01/30 03:42:42;;;;;;;26.30;16.00;;;;;;;2.38;66.48;98127.48;108312;1285;137874;-85
2024/01/30 03:46:09;;;;;;;33.60;17.80;;;;;;;2.22;67.61;98131.33;108831;1285;22577;-85
2024/01/30 03:49:36;;;;;;;26.30;15.30;;;;;;;2.04;68.03;98131.80;108248;1278;22548;-85
2024/01/30 03:53:05;;;;;;;24.20;15.40;;;;;;;1.96;68.81;98133.64;108284;1285;22649;-84
2024/01/30 03:56:22;;;;;;;28.40;16.60;;;;;;;1.90;68.93;98131.05;108413;1277;22567;-85
2024/01/30 03:59:49;;;;;;;23.50;14.30;;;;;;;1.81;69.02;98133.44;108428;1280;22648;-85
2024/01/30 04:03:17;;;;;;;26.60;14.50;;;;;;;1.66;69.60;98133.59;108284;1281;22565;-85
2024/01/30 04:06:38;;;;;;;24.20;13.50;;;;;;;1.59;69.12;98131.41;108154;1285;136640;-85
2024/01/30 04:10:05;;;;;;;20.50;13.10;;;;;;;1.59;68.12;98130.06;108413;1278;22665;-85
2024/01/30 04:13:11;;;;;;;21.20;12.60;;;;;;;1.63;70.01;98124.40;108343;1283;137500;-85
2024/01/30 04:16:19;;;;;;;23.70;13.70;;;;;;;1.56;70.58;98128.02;108301;1285;23230;-84
2024/01/30 04:19:46;;;;;;;27.20;14.60;;;;;;;1.51;69.50;98127.77;108975;1285;24946;-84
2024/01/30 04:23:14;;;;;;;21.90;13.10;;;;;;;1.52;69.41;98127.02;108264;1278;22929;-84
2024/01/30 04:26:26;;;;;;;19.80;11.50;;;;;;;1.57;68.24;98128.31;108386;1277;22574;-85
2024/01/30 04:29:27;;;;;;;20.70;12.10;;;;;;;1.63;67.56;98132.05;108287;1285;137800;-86
2024/01/30 04:32:19;;;;;;;;;;;;;;;;;;;;;
2024/01/30 04:35:24;;;;;;;;;;;;;;;;;;;;;
2024/01/30 04:38:10;;;;;;;23.00;13.10;;;;;;;1.79;67.49;98143.30;108378;1285;22529;-86
2024/01/30 04:40:51;;;;;;;29.70;13.60;;;;;;;1.77;67.59;98141.54;108191;1285;137837;-86
2024/01/30 04:43:31;;;;;;;25.00;14.00;;;;;;;1.75;68.48;98140.60;108301;1280;22548;-86
2024/01/30 04:46:09;;;;;;;26.80;15.00;;;;;;;1.70;68.97;98137.34;108310;1285;22559;-86
2024/01/30 04:48:39;;;;;;;26.50;14.50;;;;;;;1.61;68.39;98131.50;108258;1280;137785;-86
2024/01/30 04:51:06;;;;;;;27.30;15.20;;;;;;;1.60;68.12;98132.02;108227;1285;24222;-86
2024/01/30 04:53:39;;;;;;;20.80;12.70;;;;;;;1.61;68.49;98129.41;107984;1286;138215;-86
2024/01/30 04:56:14;;;;;;;13.60;8.30;;;;;;;1.67;66.71;98128.10;108114;1285;22629;-86
2024/01/30 04:58:43;;;;;;;12.10;7.00;;;;;;;1.85;64.26;98129.81;108253;1285;138024;-86
2024/01/30 05:01:27;;;;;;;15.10;9.40;;;;;;;2.12;62.20;98124.39;108251;1285;26519;-86
2024/01/30 05:04:46;;;;;;;6.90;5.40;;;;;;;2.50;57.89;98122.01;108233;1285;24312;-86
2024/01/30 05:07:44;;;;;;;4.40;3.10;;;;;;;2.92;55.56;98114.02;108295;1285;23683;-87
2024/01/30 05:11:11;;;;;;;6.20;3.60;;;;;;;3.34;55.20;98114.58;108326;1285;22588;-87
2024/01/30 05:14:32;;;;;;;;;;;;;;;;;;;;;
2024/01/30 05:17:45;;;;;;;24.00;8.10;;;;;;;4.02;52.60;98114.08;108228;1285;137534;-86
2024/01/30 05:21:14;;;;;;;10.40;4.50;;;;;;;4.19;50.98;98116.03;108335;1285;22581;-87
2024/01/30 05:24:41;;;;;;;9.40;3.90;;;;;;;4.31;50.04;98118.88;108145;1285;137412;-87
2024/01/30 05:28:04;;;;;;;5.80;2.90;;;;;;;4.49;49.78;98115.25;108272;1285;22630;-86
2024/01/30 05:31:11;;;;;;;;;;;;;;;4.62;49.83;98118.83;108278;1280;137691;-87
2024/01/30 05:34:38;;;;;;;5.70;3.20;;;;;;;4.69;49.44;98129.54;108409;1285;22636;-87
2024/01/30 05:38:05;;;;;;;21.40;6.60;;;;;;;4.74;49.40;98132.44;108222;1285;22582;-86
2024/01/30 05:41:32;;;;;;;4.30;2.40;;;;;;;4.79;47.47;98127.16;108398;1280;24021;-86
2024/01/30 05:44:52;;;;;;;4.60;2.40;;;;;;;4.88;47.77;98116.43;108380;1285;25265;-87
2024/01/30 05:48:19;;;;;;;5.40;3.30;;;;;;;4.93;47.77;98109.52;108265;1286;137583;-87
2024/01/30 05:51:47;;;;;;;6.50;3.80;;;;;;;4.99;47.58;98105.36;108243;1285;22674;-87
2024/01/30 05:55:15;;;;;;;19.20;5.60;;;;;;;5.04;45.87;98100.91;108222;1285;137435;-87
2024/01/30 05:58:43;;;;;;;6.90;4.80;;;;;;;5.06;46.19;98101.63;108316;1285;22544;-87
2024/01/30 06:02:10;;;;;;;3.70;1.90;;;;;;;5.03;46.28;98101.80;108197;1283;137259;-87
2024/01/30 06:05:37;;;;;;;3.80;2.40;;;;;;;5.03;44.39;98101.80;108314;1285;23009;-87
2024/01/30 06:09:09;;;;;;;4.00;2.20;;;;;;;5.08;45.77;98102.34;108302;1283;22530;-87
2024/01/30 06:12:35;;;;;;;6.50;4.30;;;;;;;5.04;46.22;98108.26;108129;1262;137931;-87
2024/01/30 06:16:05;;;;;;;5.70;2.50;;;;;;;5.03;46.10;98103.84;108255;1285;22530;-87
2024/01/30 06:19:32;;;;;;;4.40;2.80;;;;;;;5.07;44.85;98100.48;108173;1285;137252;-87
2024/01/30 06:23:00;;;;;;;3.00;1.90;;;;;;;5.12;44.59;98104.80;108417;1277;22567;-87
2024/01/30 06:26:27;;;;;;;3.40;2.10;;;;;;;5.16;45.50;98107.09;108271;1285;22539;-87
2024/01/30 06:29:54;;;;;;;2.20;1.70;;;;;;;5.19;43.60;98111.73;108293;1278;22592;-86
2024/01/30 06:33:22;;;;;;;3.10;1.90;;;;;;;5.26;43.13;98109.99;108263;1285;22562;-87
2024/01/30 06:36:50;;;;;;;5.10;3.20;;;;;;;5.25;44.72;98115.05;108141;1280;138123;-87
2024/01/30 06:40:18;;;;;;;7.40;3.40;;;;;;;5.21;44.51;98119.13;108406;1285;22552;-88
2024/01/30 06:43:51;;;;;;;5.00;3.10;;;;;;;5.20;44.14;98120.57;108155;1285;137648;-87
2024/01/30 06:46:58;;;;;;;;;;;;;;;5.16;48.15;98128.40;108265;1285;22521;-87
2024/01/30 06:50:25;;;;;;;20.70;10.30;;;;;;;4.70;52.66;98135.97;108294;1285;123527;-87
2024/01/30 06:53:54;;;;;;;20.40;12.60;;;;;;;4.17;54.68;98142.05;108228;1285;23297;-87
2024/01/30 06:57:24;;;;;;;19.30;11.10;;;;;;;3.78;57.23;98140.45;108401;1280;22579;-87
2024/01/30 07:00:51;;;;;;;22.50;12.60;;;;;;;3.35;57.98;98142.41;108078;1285;137888;-87
2024/01/30 07:04:22;;;;;;;20.80;11.40;;;;;;;3.10;59.64;98141.23;108292;1283;22578;-86
2024/01/30 07:07:49;;;;;;;21.80;12.70;;;;;;;2.82;61.05;98140.66;108154;1285;137739;-87
2024/01/30 07:14:48;;;;;;;23.50;13.20;;;;;;;2.51;63.97;98148.33;108422;1285;22556;-86
2024/01/30 07:18:06;;;;;;;20.60;12.40;;;;;;;2.35;64.16;98152.13;108216;1282;23834;-87
2024/01/30 07:21:33;;;;;;;22.30;12.90;;;;;;;2.25;65.41;98147.20;108337;1285;22641;-87
2024/01/30 07:25:01;;;;;;;24.40;13.40;;;;;;;2.13;65.90;98148.77;108234;1285;22540;-87
2024/01/30 07:28:29;;;;;;;21.40;12.00;;;;;;;2.04;66.22;98145.33;108299;1285;22540;-87
2024/01/30 07:31:56;;;;;;;22.30;11.90;;;;;;;1.99;66.49;98145.95;108168;1285;137576;-87
2024/01/30 07:35:17;;;;;;;22.70;12.50;;;;;;;1.94;67.33;98144.89;108390;1285;24285;-87
2024/01/30 07:38:30;;;;;;;20.00;11.90;;;;;;;1.83;67.92;98145.47;108153;1285;138159;-87
2024/01/30 07:42:22;;;;;;;17.60;10.20;;;;;;;1.80;67.49;98135.04;108505;1285;22568;-87
2024/01/30 07:45:27;;;;;;;19.30;11.50;;;;;;;1.82;66.47;98136.14;108151;1283;22580;-87
2024/01/30 07:48:44;;;;;;;23.80;12.20;;;;;;;1.83;68.15;98136.94;108109;1278;138374;-87
2024/01/30 07:51:44;;;;;;;;;;;;;;;;;;;;;
2024/01/30 07:55:00;;;;;;;16.20;9.50;;;;;;;1.84;65.83;98124.95;108160;1286;138138;-87
2024/01/30 07:58:20;;;;;;;7.20;4.30;;;;;;;2.03;61.59;98125.08;108344;1285;22646;-86
2024/01/30 08:01:46;;;;;;;7.20;3.10;;;;;;;2.75;54.80;98119.54;108290;1278;137799;-86
2024/01/30 08:05:15;;;;;;;3.00;2.10;;;;;;;3.23;55.63;98107.89;108377;1285;24373;-87
2024/01/30 08:08:27;;;;;;;9.90;6.10;;;;;;;3.52;54.66;98112.75;108158;1285;137293;-87
2024/01/30 08:11:54;;;;;;;6.40;3.70;;;;;;;3.74;53.18;98106.39;108295;1273;22575;-87
2024/01/30 08:15:12;;;;;;;6.80;4.00;;;;;;;3.94;52.10;98121.98;108373;1280;22664;-85
2024/01/30 08:18:30;;;;;;;;;;;;;;;;;;;;;
2024/01/30 08:21:59;;;;;;;9.50;4.70;;;;;;;4.14;53.30;98124.05;108233;1285;26976;-87
2024/01/30 08:25:26;;;;;;;14.70;8.00;;;;;;;4.20;52.99;98133.62;108284;1278;137281;-87
2024/01/30 08:28:56;;;;;;;25.10;13.20;;;;;;;4.01;57.10;98137.59;108268;1285;22583;-87
2024/01/30 08:32:27;;;;;;;21.40;13.40;;;;;;;3.65;59.70;98135.78;108054;1285;137809;-87
2024/01/30 08:35:54;;;;;;;25.30;15.20;;;;;;;3.32;61.11;98136.63;108243;1285;22540;-87
2024/01/30 08:39:22;;;;;;;18.80;12.30;;;;;;;3.09;61.67;98134.77;108238;1285;22652;-87
2024/01/30 08:42:49;;;;;;;10.00;6.30;;;;;;;2.99;61.79;98131.39;108156;1285;138052;-87
2024/01/30 08:46:17;;;;;;;4.20;2.50;;;;;;;3.19;55.95;98132.63;108358;1286;22808;-87
2024/01/30 08:49:44;;;;;;;5.20;3.10;;;;;;;3.73;54.23;98131.19;108310;1263;137461;-87
2024/01/30 08:56:41;;;;;;;14.20;9.00;;;;;;;4.26;55.27;98135.64;108208;1284;137951;-87
2024/01/30 09:00:10;;;;;;;20.20;10.60;;;;;;;4.24;57.42;98144.87;108332;1277;25413;-87
2024/01/30 09:03:39;;;;;;;32.60;17.40;;;;;;;4.14;59.41;98154.08;108246;1285;22569;-87
2024/01/30 09:07:08;;;;;;;29.10;18.20;;;;;;;4.01;61.34;98159.40;108122;1279;137833;-86
2024/01/30 09:10:31;;;;;;;37.30;20.90;;;;;;;3.81;63.59;98152.58;108421;1285;22547;-87
2024/01/30 09:13:58;;;;;;;45.40;24.30;;;;;;;3.69;64.62;98150.58;108187;1285;138214;-87
2024/01/30 09:17:33;;;;;;;40.00;23.30;;;;;;;3.59;65.80;98152.92;108328;1286;22607;-87
2024/01/30 09:21:00;;;;;;;39.20;24.10;;;;;;;3.50;66.82;98150.06;108024;1286;137705;-86
2024/01/30 09:24:27;;;;;;;39.60;23.00;;;;;;;3.47;67.26;98150.27;108293;1277;22576;-86
2024/01/30 09:27:54;;;;;;;37.90;21.90;;;;;;;3.40;68.29;98149.33;108262;1283;22587;-85
2024/01/30 09:31:22;;;;;;;42.20;23.60;;;;;;;3.35;68.89;98146.72;108259;1285;22568;-86
2024/01/30 09:34:42;;;;;;;37.40;21.30;;;;;;;3.38;69.69;98143.98;108235;1285;24996;-86
2024/01/30 09:38:10;;;;;;;39.70;21.90;;;;;;;3.40;70.06;98142.28;108246;1285;138080;-85
2024/01/30 09:41:30;;;;;;;42.80;25.20;;;;;;;3.40;69.96;98140.21;108262;1280;22587;-86
2024/01/30 09:44:50;;;;;;;33.00;18.70;;;;;;;3.48;70.96;98144.19;108250;1282;137615;-85
2024/01/30 09:48:11;;;;;;;30.40;18.30;;;;;;;3.48;71.41;98141.83;108287;1285;22837;-85
2024/01/30 09:51:39;;;;;;;34.20;19.10;;;;;;;3.49;71.26;98136.95;108355;1285;22540;-86
2024/01/30 09:55:06;;;;;;;38.30;23.10;;;;;;;3.54;71.30;98135.95;108253;1285;137989;-85
2024/01/30 09:58:34;;;;;;;41.20;23.80;;;;;;;3.59;72.16;98132.39;108338;1286;24978;-86
2024/01/30 10:02:00;;;;;;;37.20;21.80;;;;;;;3.65;72.16;98134.42;108134;1283;137868;-86
2024/01/30 10:05:31;;;;;;;35.70;22.50;;;;;;;3.71;72.54;98132.80;108216;1280;22552;-87
2024/01/30 10:08:58;;;;;;;39.40;23.90;;;;;;;3.74;73.14;98126.48;108135;1286;137829;-86
2024/01/30 10:12:26;;;;;;;36.80;20.00;;;;;;;3.77;72.93;98130.89;108302;1283;22540;-87
2024/01/30 10:15:53;;;;;;;38.70;22.80;;;;;;;3.82;73.28;98132.11;108265;1286;25249;-86
2024/01/30 10:19:22;;;;;;;37.60;24.60;;;;;;;3.91;73.15;98132.92;108263;1286;137861;-87
2024/01/30 10:22:49;;;;;;;38.10;21.70;;;;;;;3.97;73.60;98131.19;108265;1286;24326;-87
2024/01/30 10:26:25;;;;;;;33.50;20.20;;;;;;;4.05;73.51;98127.39;108114;1286;137618;-87
2024/01/30 10:30:03;;;;;;;;;;;;;;;;;;;;;
2024/01/30 10:33:30;;;;;;;29.00;18.10;;;;;;;4.16;74.03;98121.85;108298;1286;137865;-87
2024/01/30 10:36:58;;;;;;;36.90;22.50;;;;;;;4.20;73.82;98113.84;108234;1282;22543;-87
2024/01/30 10:40:25;;;;;;;35.10;21.00;;;;;;;4.27;73.77;98116.41;108264;1286;23764;-87
2024/01/30 10:43:52;;;;;;;34.50;19.10;;;;;;;4.36;74.20;98116.95;108223;1286;138964;-88
2024/01/30 10:47:19;;;;;;;33.60;21.60;;;;;;;4.43;73.49;98118.62;108183;1286;23791;-87
2024/01/30 10:50:47;;;;;;;23.80;15.40;;;;;;;4.47;74.26;98110.89;108158;1283;137865;-88
2024/01/30 10:54:14;;;;;;;24.40;14.90;;;;;;;4.50;74.24;98103.98;108281;1281;26490;-86
2024/01/30 10:57:42;;;;;;;34.40;21.30;;;;;;;4.57;73.04;98100.98;108426;1280;22546;-87
2024/01/30 11:01:09;;;;;;;27.40;17.90;;;;;;;4.74;72.01;98097.60;108287;1286;22585;-87
2024/01/30 11:04:38;;;;;;;33.90;20.90;;;;;;;4.86;71.32;98088.39;108342;1278;22543;-88
2024/01/30 11:08:05;;;;;;;29.70;17.00;;;;;;;5.00;69.98;98085.36;108240;1285;137941;-88
2024/01/30 11:11:32;;;;;;;27.60;17.10;;;;;;;5.06;71.74;98086.70;108255;1283;22537;-87
2024/01/30 11:15:06;;;;;;;31.10;16.70;;;;;;;5.09;72.35;98082.30;108021;1286;138352;-87
2024/01/30 11:18:43;;;;;;;29.70;17.50;;;;;;;5.12;72.38;98075.42;108227;1278;22591;-87
2024/01/30 11:22:10;;;;;;;33.00;18.50;;;;;;;5.18;71.93;98078.60;108065;1285;25343;-87
2024/01/30 11:25:40;;;;;;;30.40;18.70;;;;;;;5.24;70.65;98078.02;108180;1285;138047;-88
2024/01/30 11:29:09;;;;;;;31.20;19.70;;;;;;;5.30;70.50;98076.06;108362;1282;23958;-88
2024/01/30 11:32:34;;;;;;;28.00;17.80;;;;;;;5.39;71.38;98072.50;108237;1285;138618;-88
2024/01/30 11:36:03;;;;;;;29.30;17.40;;;;;;;5.41;70.31;98072.39;108306;1285;22543;-88
2024/01/30 11:39:30;;;;;;;32.80;19.30;;;;;;;5.49;70.25;98068.84;108381;1285;137928;-87
2024/01/30 11:42:57;;;;;;;33.40;19.40;;;;;;;5.59;70.56;98063.20;108321;1285;23919;-88
2024/01/30 11:46:25;;;;;;;25.70;17.20;;;;;;;5.65;70.77;98056.91;108418;1285;23783;-88
2024/01/30 11:49:52;;;;;;;33.50;18.20;;;;;;;5.67;72.25;98049.65;108259;1285;138308;-88
2024/01/30 11:53:19;;;;;;;27.10;17.40;;;;;;;5.74;71.69;98045.23;108352;1285;22510;-88
2024/01/30 11:56:53;;;;;;;37.50;23.60;;;;;;;5.79;70.18;98047.80;108241;1285;137575;-88
2024/01/30 12:00:23;;;;;;;27.70;16.40;;;;;;;5.90;71.15;98043.57;108398;1277;22639;-88
2024/01/30 12:03:54;;;;;;;35.00;19.80;;;;;;;5.97;71.75;98040.52;108113;1285;138008;-88
2024/01/30 12:07:21;;;;;;;26.90;17.60;;;;;;;6.05;71.95;98034.95;108381;1285;22550;-88
2024/01/30 12:10:54;;;;;;;42.20;24.90;;;;;;;6.17;69.50;98034.37;108300;1283;22540;-88
2024/01/30 12:14:23;;;;;;;28.10;17.30;;;;;;;6.43;69.23;98032.42;108338;1284;137614;-87
2024/01/30 12:17:52;;;;;;;36.80;21.80;;;;;;;6.60;65.18;98020.98;108406;1285;23884;-88
2024/01/30 12:21:19;;;;;;;29.20;19.70;;;;;;;6.79;66.57;98021.05;108222;1285;137736;-87
2024/01/30 12:24:47;;;;;;;31.30;17.90;;;;;;;6.99;64.02;98014.67;108390;1281;22564;-88
2024/01/30 12:28:15;;;;;;;12.00;7.20;;;;;;;7.18;59.02;98013.89;108265;1285;22535;-88
2024/01/30 12:31:44;;;;;;;7.40;5.10;;;;;;;7.34;60.33;98007.94;108292;1285;137604;-88
2024/01/30 12:35:12;;;;;;;4.40;2.80;;;;;;;7.49;57.68;98003.48;108358;1285;22552;-88
2024/01/30 12:38:39;;;;;;;3.30;2.40;;;;;;;7.59;56.82;97994.08;108278;1285;137371;-89
2024/01/30 12:42:08;;;;;;;4.50;2.30;;;;;;;7.64;59.29;97997.08;108437;1285;22586;-88
2024/01/30 12:45:35;;;;;;;2.40;1.70;;;;;;;7.66;55.56;97998.98;108238;1277;137760;-88
2024/01/30 12:49:02;;;;;;;6.80;4.20;;;;;;;7.74;57.64;97995.21;108414;1278;22656;-88
2024/01/30 12:52:30;;;;;;;17.80;10.40;;;;;;;7.82;58.30;97994.63;108393;1286;22573;-88
2024/01/30 12:55:57;;;;;;;6.40;4.30;;;;;;;7.86;60.59;98001.89;108235;1285;138442;-87
2024/01/30 12:59:24;;;;;;;9.20;5.70;;;;;;;7.81;56.81;97993.58;108508;1262;22559;-86
2024/01/30 13:02:52;;;;;;;18.80;11.70;;;;;;;7.83;58.39;97994.88;108202;1285;137131;-87
2024/01/30 13:06:23;;;;;;;11.00;6.70;;;;;;;7.80;62.53;97990.45;108351;1284;22609;-86
2024/01/30 13:09:51;;;;;;;7.60;5.40;;;;;;;7.69;57.74;97990.45;108382;1280;138100;-87
2024/01/30 13:13:18;;;;;;;19.50;12.40;;;;;;;7.73;59.43;97985.98;108325;1285;25548;-86
2024/01/30 13:16:47;;;;;;;5.10;3.50;;;;;;;7.74;58.77;97987.50;108325;1285;22541;-87
2024/01/30 13:20:39;;;;;;;3.70;2.60;;;;;;;7.86;54.51;97989.64;108322;1286;138265;-87
2024/01/30 13:23:42;;;;;;;5.30;3.60;;;;;;;8.02;57.59;97992.94;108240;1285;22542;-86
2024/01/30 13:27:09;;;;;;;3.10;2.30;;;;;;;7.96;55.61;97995.70;108238;1285;137379;-86
2024/01/30 13:30:36;;;;;;;3.70;2.10;;;;;;;7.99;53.85;97994.04;108328;1279;22766;-87
2024/01/30 13:34:04;;;;;;;5.30;3.10;;;;;;;8.03;54.34;97994.06;108141;1282;138157;-87
2024/01/30 13:37:31;;;;;;;4.70;3.00;;;;;;;8.05;52.82;97992.35;108277;1285;22610;-86
2024/01/30 13:40:59;;;;;;;3.40;2.10;;;;;;;8.05;51.64;97992.33;108372;1284;24802;-87
2024/01/30 13:44:26;;;;;;;2.50;1.80;;;;;;;8.13;49.64;97990.16;104309;1278;5376590;-88
2024/01/30 13:47:54;;;;;;;2.30;1.70;;;;;;;8.21;46.26;97989.31;108366;1285;22556;-87
2024/01/30 13:51:21;;;;;;;3.20;1.90;;;;;;;8.25;47.05;97994.81;108236;1285;137413;-87
2024/01/30 13:54:49;;;;;;;2.20;1.70;;;;;;;8.26;45.91;97992.14;108322;1285;24230;-87
2024/01/30 13:58:19;;;;;;;2.40;1.60;;;;;;;8.25;45.24;97981.75;108345;1285;137422;-86
2024/01/30 14:01:49;;;;;;;2.80;1.60;;;;;;;8.24;45.00;97979.05;108476;1285;22574;-87
2024/01/30 14:05:27;;;;;;;;;;;;;;;;;;;;;
2024/01/30 14:09:00;;;;;;;2.70;1.70;;;;;;;8.21;45.82;97972.36;108304;1285;137597;-87
2024/01/30 14:12:33;;;;;;;3.40;2.20;;;;;;;8.16;46.98;97967.43;108352;1285;22566;-87
2024/01/30 14:16:02;;;;;;;2.90;1.80;;;;;;;8.09;47.74;97966.61;108227;1284;137549;-87
2024/01/30 14:19:30;;;;;;;3.90;2.40;;;;;;;8.04;46.18;97969.51;108514;1285;24247;-87
2024/01/30 14:22:59;;;;;;;4.60;2.00;;;;;;;8.02;46.62;97966.18;108208;1285;23190;-87
2024/01/30 14:26:26;;;;;;;3.50;2.30;;;;;;;7.98;45.79;97964.50;108370;1270;138067;-87
2024/01/30 14:29:54;;;;;;;2.60;1.80;;;;;;;7.98;43.76;97966.02;108278;1285;23327;-87
2024/01/30 14:33:21;;;;;;;4.50;2.50;;;;;;;7.98;43.61;97961.01;108191;1285;137355;-87
2024/01/30 14:36:48;;;;;;;3.70;2.20;;;;;;;7.98;43.66;97970.89;108278;1285;22540;-87
2024/01/30 14:40:16;;;;;;;3.10;2.00;;;;;;;7.99;45.05;97962.48;108257;1285;137961;-87
2024/01/30 14:43:43;;;;;;;3.70;2.20;;;;;;;7.97;45.74;97965.75;108272;1285;22573;-87
2024/01/30 14:47:10;;;;;;;3.10;2.20;;;;;;;7.90;45.97;97964.08;108288;1286;22525;-87
2024/01/30 14:50:44;;;;;;;17.50;6.10;;;;;;;7.82;46.46;97962.15;108217;1285;137484;-87
2024/01/30 14:54:21;;;;;;;;;;;;;;;;;;;;;
2024/01/30 14:57:52;;;;;;;;;;;;;;;;;;;;;
2024/01/30 15:01:23;;;;;;;;;;;;;;;;;;;;;
2024/01/30 15:04:44;;;;;;;4.10;2.70;;;;;;;7.66;46.92;97966.20;108191;1285;137175;-87
2024/01/30 15:08:12;;;;;;;4.40;2.50;;;;;;;7.59;45.93;97965.28;108313;1285;22585;-87
2024/01/30 15:11:40;;;;;;;3.30;2.30;;;;;;;7.53;45.77;97967.44;108308;1285;23928;-87
2024/01/30 15:15:07;;;;;;;4.40;2.00;;;;;;;7.48;46.55;97964.25;108227;1282;137973;-87
2024/01/30 15:18:43;;;;;;;4.20;2.80;;;;;;;7.42;44.56;97957.84;108268;1285;22730;-87
2024/01/30 15:22:11;;;;;;;4.80;3.20;;;;;;;7.40;44.97;97961.46;108325;1281;137665;-87
2024/01/30 15:25:40;;;;;;;3.50;2.30;;;;;;;7.29;45.80;97960.42;108255;1286;23982;-87
2024/01/30 15:29:16;;;;;;;8.80;5.30;;;;;;;7.18;45.04;97956.33;108439;1285;22548;-86
2024/01/30 15:32:43;;;;;;;4.80;2.50;;;;;;;7.14;46.18;97955.05;108255;1282;137727;-87
2024/01/30 15:36:13;;;;;;;3.70;2.30;;;;;;;7.07;45.00;97956.33;108443;1278;22550;-87
2024/01/30 15:39:38;;;;;;;3.90;2.60;;;;;;;7.04;44.53;97958.64;108159;1285;137778;-86
2024/01/30 15:43:11;;;;;;;5.10;2.80;;;;;;;7.04;45.00;97956.95;108275;1285;22639;-87
2024/01/30 15:46:38;;;;;;;5.80;3.10;;;;;;;6.98;42.43;97952.89;108247;1285;137541;-87
2024/01/30 15:50:05;;;;;;;3.30;2.40;;;;;;;6.99;43.17;97946.61;108242;1286;23017;-87
2024/01/30 15:53:34;;;;;;;3.80;2.40;;;;;;;7.03;42.51;97942.36;108304;1285;22534;-86
2024/01/30 15:57:01;;;;;;;3.40;2.40;;;;;;;7.07;43.12;97938.27;108220;1285;22593;-87
2024/01/30 16:00:28;;;;;;;3.70;2.30;;;;;;;7.01;43.45;97936.14;108321;1282;22586;-87
2024/01/30 16:03:56;;;;;;;3.20;2.50;;;;;;;7.00;42.20;97940.35;108298;1283;22609;-86
2024/01/30 16:07:24;;;;;;;4.00;2.50;;;;;;;7.05;42.80;97938.56;108272;1284;22542;-86
2024/01/30 16:10:51;;;;;;;15.60;9.20;;;;;;;7.05;43.21;97939.73;108180;1285;137438;-87
2024/01/30 16:14:19;;;;;;;6.80;3.80;;;;;;;7.02;42.44;97937.92;108325;1285;22594;-87
2024/01/30 16:17:46;;;;;;;3.90;2.30;;;;;;;7.03;41.53;97941.88;108287;1285;22577;-87